首页
METAR-TAF:

METAR-TAF

机场 :

Diepholz, 德国

纬度: 52-35N, 经度: 008-21E, 海拔: 39米

当前天气观测

该预报发布于13小时和58分钟前的14:20 UTC
风速10节,风向西南
温度 7°C
湿度 87%
气压 999 hPa
能见度10公里或以上
少量云层高于1500英尺
多云层高于1900英尺

METAR: ETND 131420Z 22010KT 9999 FEW015 BKN019 07/05 Q0999 WHT

时间: 05:18 (04:18 UTC)

预报

该预报发布于13小时和48分钟前的14:30 UTC
预报有效从13日的 12点(UTC)到 13日的 21点(UTC)
风速10节,风向
能见度10公里或以上
散云层高于1000英尺
多云层高于2000英尺
短暂存在
从 13日的 12点(UTC)到 13日的 18点(UTC)
风速12节,风向南转西南
能見度: 4000
多云层高于1000英尺
多云层高于2000英尺, 塔状积云.
阵雨
几率 30%
从 13日的 18点(UTC)到 13日的 21点(UTC)
风速5节,风向
能見度: 1430
多云层高于500英尺
轻雾

TAF: ETND 131430Z 1312/1321 19010KT 9999 NSW SCT010 BKN020 TEMPO 1312/1318 21012KT 4000 SHRA BKN010 BKN020TCU PROB30 1318/1321 18005KT 3000 BR BKN005 CANCEL 1430 BY ETGL

超过4000个机场的气象观测和天气预报(METAR&TAF报告)。

可查询的气象台以黄色和红色小点在地图上表示。

将鼠标移到小点上方,可查看气象台名称。

然后点击查看天气观测和预报。

如需切换地图:点击带黑十字的绿色按钮放大地图;点击带横线的绿色按钮缩小地图;或者点击绿色箭头查看邻近地区的地图。


METAR-TAF: